Alpine, Virginia
Current Conditions -  °F | °C
As of 9:55 PM on Saturday 25 Oct 2014 (Local Time) from K8W2 Reporting Station
Clear Clear  
Wind Chill: 52°   Ceiling: Unl
Heat Index: 52°   Visibility: 10mi
Dew Point: 46°   Wind: 0mph
Humidity: 78%   Direction: NA
Pressure: 29.78"   Gusts: NA
Location:  38.6726°N, 78.6691°W
Report Text: K8W2 260155Z AUTO 00000KT 10SM CLR 11/08 A2978 RMK AO1 T01120075
Loading
Personal Weather Stations






























Interactive Weather Map New forecast layout! Learn more

10-Day Weather Forecast

Advertisements
Track Severe Weather on mobile